createdAt,value
2017-07-20T00:01:03.505Z,2.60
2017-07-20T00:03:31.130Z,3.87
2017-07-20T00:05:58.769Z,3.47
2017-07-20T00:08:26.387Z,2.07
2017-07-20T00:10:53.999Z,2.70
2017-07-20T00:13:21.649Z,2.50
2017-07-20T00:15:49.239Z,3.20
2017-07-20T00:18:16.845Z,2.20
2017-07-20T00:20:44.497Z,1.63
2017-07-20T00:23:12.117Z,2.70
2017-07-20T00:25:39.723Z,2.20
2017-07-20T00:28:07.372Z,2.03
2017-07-20T00:30:34.981Z,3.37
2017-07-20T00:33:02.588Z,2.30
2017-07-20T00:35:31.000Z,2.57
2017-07-20T00:37:58.612Z,3.60
2017-07-20T00:40:26.235Z,3.93
2017-07-20T00:42:53.871Z,4.20
2017-07-20T00:45:21.490Z,4.83
2017-07-20T00:47:49.133Z,4.50
2017-07-20T00:50:16.774Z,3.60
2017-07-20T00:52:44.399Z,7.80
2017-07-20T00:55:12.015Z,3.40
2017-07-20T00:57:40.420Z,3.60
2017-07-20T01:00:08.036Z,6.03
2017-07-20T01:02:36.413Z,3.60
2017-07-20T01:05:04.053Z,4.37
2017-07-20T01:07:31.669Z,6.67
2017-07-20T01:09:59.275Z,6.10
2017-07-20T01:12:26.909Z,3.87
2017-07-20T01:14:54.520Z,3.30
2017-07-20T01:17:22.906Z,3.53
2017-07-20T01:19:50.554Z,3.30
2017-07-20T01:22:18.148Z,4.43
2017-07-20T01:24:45.757Z,3.23
2017-07-20T01:27:13.392Z,3.60
2017-07-20T01:29:41.001Z,3.47
2017-07-20T01:32:08.615Z,5.57
2017-07-20T01:34:36.243Z,4.10
2017-07-20T01:37:03.851Z,4.67
2017-07-20T01:39:32.214Z,4.23
2017-07-20T01:42:00.616Z,3.37
2017-07-20T01:44:28.219Z,3.90
2017-07-20T01:46:55.819Z,3.00
2017-07-20T01:49:23.461Z,4.13
2017-07-20T01:51:51.059Z,3.37
2017-07-20T01:54:18.659Z,3.37
2017-07-20T01:56:46.293Z,3.03
2017-07-20T01:59:13.912Z,4.50
2017-07-20T02:01:42.290Z,5.70
2017-07-20T02:04:09.933Z,5.63
2017-07-20T02:06:37.551Z,3.97
2017-07-20T02:09:05.167Z,5.97
2017-07-20T02:11:32.799Z,5.07
2017-07-20T02:14:00.413Z,3.37
2017-07-20T02:16:28.114Z,4.37
2017-07-20T02:18:55.755Z,3.50
2017-07-20T02:21:23.361Z,4.40
2017-07-20T02:23:50.972Z,5.97
2017-07-20T02:26:18.625Z,3.20
2017-07-20T02:28:47.005Z,6.53
2017-07-20T02:31:15.403Z,5.00
2017-07-20T02:33:43.040Z,4.73
2017-07-20T02:36:10.720Z,4.87
2017-07-20T02:38:38.335Z,3.20
2017-07-20T02:41:05.971Z,4.37
2017-07-20T02:43:33.835Z,4.03
2017-07-20T02:46:01.452Z,3.73
2017-07-20T02:48:29.086Z,5.03
2017-07-20T02:50:57.470Z,6.13
2017-07-20T02:53:25.068Z,4.20
2017-07-20T02:55:52.712Z,5.80
2017-07-20T02:58:20.312Z,5.87
2017-07-20T03:00:47.913Z,4.63
2017-07-20T03:03:15.554Z,6.50
2017-07-20T03:05:43.168Z,7.77
2017-07-20T03:08:10.777Z,6.13
2017-07-20T03:10:39.184Z,5.93
2017-07-20T03:13:06.798Z,8.73
2017-07-20T03:15:34.403Z,3.50
2017-07-20T03:18:02.052Z,4.83
2017-07-20T03:20:29.661Z,7.07
2017-07-20T03:22:57.263Z,5.70
2017-07-20T03:25:25.677Z,9.77
2017-07-20T03:27:53.280Z,6.03
2017-07-20T03:30:20.896Z,5.37
2017-07-20T03:32:48.544Z,4.70
2017-07-20T03:35:16.188Z,6.30
2017-07-20T03:37:43.797Z,5.93
2017-07-20T03:40:11.477Z,5.90
2017-07-20T03:42:39.081Z,5.73
2017-07-20T03:45:06.695Z,4.20
2017-07-20T03:47:35.087Z,5.20
2017-07-20T03:50:02.692Z,4.57
2017-07-20T03:52:30.295Z,7.00
2017-07-20T03:54:57.924Z,4.70
2017-07-20T03:57:25.541Z,5.93
2017-07-20T03:59:53.169Z,5.50
2017-07-20T04:02:20.818Z,5.23
2017-07-20T04:04:48.424Z,5.27
2017-07-20T04:07:16.033Z,4.50
2017-07-20T04:09:44.434Z,7.87
2017-07-20T04:12:12.031Z,5.80
2017-07-20T04:14:40.411Z,6.90
2017-07-20T04:17:08.812Z,6.40
2017-07-20T04:19:36.421Z,7.33
2017-07-20T04:22:04.784Z,5.43
2017-07-20T04:24:32.521Z,4.43
2017-07-20T04:27:00.901Z,6.70
2017-07-20T04:29:28.512Z,5.47
2017-07-20T04:31:56.164Z,4.63
2017-07-20T04:34:23.772Z,7.60
2017-07-20T04:36:51.375Z,5.60
2017-07-20T04:39:19.790Z,9.03
2017-07-20T04:41:47.396Z,6.33
2017-07-20T04:44:15.783Z,5.63
2017-07-20T04:46:43.437Z,5.20
2017-07-20T04:49:11.049Z,6.53
2017-07-20T04:51:38.667Z,5.93
2017-07-20T04:54:06.318Z,7.00
2017-07-20T04:56:33.951Z,6.03
2017-07-20T04:59:01.565Z,6.20
2017-07-20T05:01:29.218Z,7.33
2017-07-20T05:03:56.841Z,8.23
2017-07-20T05:06:24.443Z,6.50
2017-07-20T05:08:52.083Z,6.93
2017-07-20T05:11:19.709Z,8.93
2017-07-20T05:13:47.331Z,7.80
2017-07-20T05:16:14.981Z,6.13
2017-07-20T05:18:42.598Z,6.90
2017-07-20T05:21:10.980Z,8.10
2017-07-20T05:23:38.650Z,5.57
2017-07-20T05:26:06.265Z,6.60
2017-07-20T05:28:33.967Z,6.57
2017-07-20T05:31:01.876Z,4.83
2017-07-20T05:33:29.483Z,7.33
2017-07-20T05:35:57.177Z,4.93
2017-07-20T05:38:24.841Z,4.63
2017-07-20T05:40:52.449Z,7.60
2017-07-20T05:43:20.065Z,4.93
2017-07-20T05:45:47.849Z,4.50
2017-07-20T05:48:15.469Z,4.73
2017-07-20T05:50:43.083Z,8.43
2017-07-20T05:53:10.727Z,7.17
2017-07-20T05:55:38.341Z,4.70
2017-07-20T05:58:05.954Z,4.20
2017-07-20T06:00:34.374Z,6.00
2017-07-20T06:03:01.988Z,5.00
2017-07-20T06:05:29.609Z,5.63
2017-07-20T06:07:57.260Z,4.70
2017-07-20T06:10:25.646Z,8.60
2017-07-20T06:12:53.269Z,6.73
2017-07-20T06:15:20.912Z,5.13
2017-07-20T06:17:48.516Z,5.97
2017-07-20T06:20:16.124Z,5.27
2017-07-20T06:22:44.317Z,4.47
2017-07-20T06:25:12.042Z,4.47
2017-07-20T06:27:39.650Z,3.90
2017-07-20T06:30:07.280Z,5.00
2017-07-20T06:32:34.894Z,4.37
2017-07-20T06:35:02.499Z,3.40
2017-07-20T06:37:30.901Z,4.23
2017-07-20T06:39:58.509Z,5.57
2017-07-20T06:42:26.897Z,3.43
2017-07-20T06:44:54.537Z,6.37
2017-07-20T06:47:22.146Z,2.90
2017-07-20T06:49:50.195Z,5.00
2017-07-20T06:52:17.858Z,6.57
2017-07-20T06:54:45.484Z,4.70
2017-07-20T06:57:13.092Z,6.57
2017-07-20T06:59:40.734Z,4.97
2017-07-20T07:02:08.347Z,5.23
2017-07-20T07:04:35.949Z,2.60
2017-07-20T07:07:03.583Z,3.90
2017-07-20T07:09:31.193Z,4.20
2017-07-20T07:11:59.572Z,5.43
2017-07-20T07:14:27.216Z,4.67
2017-07-20T07:16:55.520Z,3.30
2017-07-20T07:19:23.134Z,2.73
2017-07-20T07:21:50.769Z,5.50
2017-07-20T07:24:19.142Z,8.33
2017-07-20T07:26:46.748Z,4.70
2017-07-20T07:29:14.388Z,3.13
2017-07-20T07:31:42.000Z,6.67
2017-07-20T07:34:09.635Z,3.97
2017-07-20T07:36:37.278Z,3.40
2017-07-20T07:39:04.893Z,4.90
2017-07-20T07:41:33.272Z,5.30
2017-07-20T07:44:01.685Z,3.30
2017-07-20T07:46:29.284Z,5.00
2017-07-20T07:48:57.655Z,4.37
2017-07-20T07:51:25.326Z,4.50
2017-07-20T07:53:52.930Z,4.03
2017-07-20T07:56:21.320Z,4.23
2017-07-20T07:58:48.981Z,6.80
2017-07-20T08:01:16.599Z,4.60
2017-07-20T08:03:44.965Z,3.87
2017-07-20T08:06:12.608Z,4.30
2017-07-20T08:08:40.217Z,4.07
2017-07-20T08:11:07.830Z,4.80
2017-07-20T08:13:35.470Z,4.20
2017-07-20T08:16:03.077Z,6.90
2017-07-20T08:18:31.453Z,4.40
2017-07-20T08:20:59.843Z,4.27
2017-07-20T08:23:27.447Z,3.60
2017-07-20T08:25:55.825Z,3.87
2017-07-20T08:28:23.469Z,5.10
2017-07-20T08:30:51.083Z,6.00
2017-07-20T08:33:18.689Z,3.83
2017-07-20T08:35:46.326Z,4.17
2017-07-20T08:38:13.926Z,4.27
2017-07-20T08:40:41.531Z,6.73
2017-07-20T08:43:09.168Z,3.10
2017-07-20T08:45:36.775Z,4.43
2017-07-20T08:48:05.141Z,2.90
2017-07-20T08:50:33.559Z,6.50
2017-07-20T08:53:01.176Z,3.63
2017-07-20T08:55:28.789Z,3.47
2017-07-20T08:57:56.437Z,4.70
2017-07-20T09:00:24.051Z,4.50
2017-07-20T09:02:51.659Z,3.10
2017-07-20T09:05:19.321Z,3.83
2017-07-20T09:07:46.928Z,2.90
2017-07-20T09:10:15.309Z,2.93
2017-07-20T09:12:42.970Z,2.80
2017-07-20T09:15:10.580Z,3.50
2017-07-20T09:17:38.183Z,6.20
2017-07-20T09:20:05.859Z,4.47
2017-07-20T09:22:33.459Z,3.80
2017-07-20T09:25:01.073Z,4.77
2017-07-20T09:27:29.493Z,5.30
2017-07-20T09:29:57.117Z,4.43
2017-07-20T09:32:24.726Z,4.00
2017-07-20T09:34:52.368Z,3.10
2017-07-20T09:37:20.119Z,3.83
2017-07-20T09:39:47.757Z,4.60
2017-07-20T09:42:15.402Z,4.43
2017-07-20T09:44:43.033Z,3.53
2017-07-20T09:47:10.642Z,5.13
2017-07-20T09:49:38.277Z,3.30
2017-07-20T09:52:05.877Z,4.60
2017-07-20T09:54:33.497Z,6.47
2017-07-20T09:57:01.188Z,5.63
2017-07-20T09:59:28.793Z,3.67
2017-07-20T10:01:56.403Z,4.17
2017-07-20T10:04:24.041Z,4.93
2017-07-20T10:06:52.406Z,4.07
2017-07-20T10:09:21.513Z,4.80
2017-07-20T10:11:49.175Z,7.20
2017-07-20T10:14:16.777Z,4.00
2017-07-20T10:16:44.382Z,4.63
2017-07-20T10:19:12.387Z,6.03
2017-07-20T10:21:39.988Z,6.13
2017-07-20T10:24:07.592Z,4.03
2017-07-20T10:26:35.249Z,5.50
2017-07-20T10:29:02.883Z,5.30
2017-07-20T10:31:30.506Z,3.20
2017-07-20T10:33:58.907Z,4.03
2017-07-20T10:36:26.517Z,5.00
2017-07-20T10:38:54.899Z,3.90
2017-07-20T10:41:22.534Z,3.80
2017-07-20T10:43:50.146Z,3.97
2017-07-20T10:46:17.752Z,4.43
2017-07-20T10:48:45.404Z,3.83
2017-07-20T10:51:13.026Z,4.43
2017-07-20T10:53:40.632Z,4.20
2017-07-20T10:56:08.282Z,4.67
2017-07-20T10:58:35.887Z,4.90
2017-07-20T11:01:03.483Z,3.50
2017-07-20T11:03:31.909Z,5.70
2017-07-20T11:05:59.513Z,5.43
2017-07-20T11:08:27.115Z,6.20
2017-07-20T11:10:54.765Z,6.47
2017-07-20T11:13:22.391Z,4.60
2017-07-20T11:15:49.995Z,4.10
2017-07-20T11:18:17.650Z,5.90
2017-07-20T11:20:45.263Z,6.00
2017-07-20T11:23:12.869Z,4.50
2017-07-20T11:25:40.516Z,4.70
2017-07-20T11:28:08.124Z,5.77
2017-07-20T11:30:35.730Z,4.37
2017-07-20T11:33:03.360Z,6.37
2017-07-20T11:35:30.964Z,5.30
2017-07-20T11:37:58.578Z,6.50
2017-07-20T11:40:26.217Z,5.00
2017-07-20T11:42:53.845Z,5.43
2017-07-20T11:45:21.470Z,12.50
2017-07-20T11:47:49.109Z,5.60
2017-07-20T11:50:17.558Z,4.37
2017-07-20T11:52:45.167Z,5.10
2017-07-20T11:55:12.821Z,6.67
2017-07-20T11:57:40.454Z,5.33
2017-07-20T12:00:08.076Z,5.53
2017-07-20T12:02:35.717Z,5.10
2017-07-20T12:05:04.090Z,4.90
2017-07-20T12:07:31.714Z,8.97
2017-07-20T12:09:59.345Z,5.93
2017-07-20T12:12:26.978Z,5.63
2017-07-20T12:14:55.340Z,5.53
2017-07-20T12:17:23.743Z,6.23
2017-07-20T12:19:51.354Z,6.23
2017-07-20T12:22:20.072Z,8.43
2017-07-20T12:24:47.730Z,5.80
2017-07-20T12:27:15.348Z,5.60
2017-07-20T12:29:42.949Z,5.97
2017-07-20T12:32:10.580Z,6.40
2017-07-20T12:34:38.191Z,7.67
2017-07-20T12:37:05.813Z,5.23
2017-07-20T12:39:34.232Z,6.00
2017-07-20T12:42:01.847Z,5.80
2017-07-20T12:44:29.449Z,6.03
2017-07-20T12:46:57.101Z,7.10
2017-07-20T12:49:25.468Z,5.13
2017-07-20T12:51:53.853Z,6.70
2017-07-20T12:54:21.514Z,6.07
2017-07-20T12:56:49.116Z,5.33
2017-07-20T12:59:16.716Z,5.80
2017-07-20T13:01:44.365Z,9.73
2017-07-20T13:04:11.985Z,5.10
2017-07-20T13:06:39.619Z,8.63
2017-07-20T13:09:07.260Z,6.20
2017-07-20T13:11:35.624Z,7.37
2017-07-20T13:14:04.008Z,7.60
2017-07-20T13:16:31.647Z,5.33
2017-07-20T13:18:59.253Z,6.30
2017-07-20T13:21:26.869Z,5.30
2017-07-20T13:23:54.507Z,5.30
2017-07-20T13:26:22.118Z,6.03
2017-07-20T13:28:49.719Z,8.00
2017-07-20T13:31:17.355Z,7.00
2017-07-20T13:33:44.964Z,4.60
2017-07-20T13:36:12.575Z,5.10
2017-07-20T13:38:40.230Z,5.37
2017-07-20T13:41:08.616Z,6.40
2017-07-20T13:43:36.222Z,7.37
2017-07-20T13:46:03.882Z,4.07
2017-07-20T13:48:31.497Z,5.83
2017-07-20T13:50:59.110Z,7.73
2017-07-20T13:53:26.763Z,13.50
2017-07-20T13:55:54.377Z,6.67
2017-07-20T13:58:22.753Z,4.97
2017-07-20T14:00:50.397Z,4.40
2017-07-20T14:03:18.788Z,5.60
2017-07-20T14:05:46.417Z,5.50
2017-07-20T14:08:14.821Z,5.53
2017-07-20T14:10:42.445Z,5.73
2017-07-20T14:13:10.057Z,7.20
2017-07-20T14:15:38.465Z,5.07
2017-07-20T14:18:06.080Z,7.93
2017-07-20T14:20:33.703Z,8.57
2017-07-20T14:23:02.121Z,5.03
2017-07-20T14:25:29.718Z,6.23
2017-07-20T14:27:57.326Z,5.57
2017-07-20T14:30:24.975Z,5.57
2017-07-20T14:32:52.575Z,5.23
2017-07-20T14:35:20.187Z,6.97
2017-07-20T14:37:47.823Z,8.23
2017-07-20T14:40:15.431Z,5.60
2017-07-20T14:42:43.117Z,7.17
2017-07-20T14:45:10.750Z,6.63
2017-07-20T14:47:38.360Z,6.00
2017-07-20T14:50:05.969Z,7.40
2017-07-20T14:52:33.619Z,5.27
2017-07-20T14:55:02.008Z,6.27
2017-07-20T14:57:30.016Z,7.10
2017-07-20T14:59:57.667Z,8.13
2017-07-20T15:02:25.280Z,8.50
2017-07-20T15:04:52.889Z,4.57
2017-07-20T15:07:21.301Z,5.07
2017-07-20T15:09:48.910Z,10.40
2017-07-20T15:12:17.298Z,7.27
2017-07-20T15:14:44.942Z,5.53
2017-07-20T15:17:12.561Z,5.30
2017-07-20T15:19:40.168Z,5.97
2017-07-20T15:22:07.822Z,5.57
2017-07-20T15:24:35.423Z,7.20
2017-07-20T15:27:03.027Z,5.30
2017-07-20T15:29:30.663Z,5.57
2017-07-20T15:31:58.273Z,5.67
2017-07-20T15:34:25.885Z,6.07
2017-07-20T15:36:53.802Z,7.90
2017-07-20T15:39:21.407Z,6.27
2017-07-20T15:41:49.019Z,4.77
2017-07-20T15:44:16.671Z,6.07
2017-07-20T15:46:45.047Z,7.90
2017-07-20T15:49:12.652Z,5.20
2017-07-20T15:51:40.311Z,7.53
2017-07-20T15:54:07.963Z,7.30
2017-07-20T15:56:36.322Z,5.90
2017-07-20T15:59:04.724Z,6.43
2017-07-20T16:01:32.337Z,5.77
2017-07-20T16:04:00.934Z,7.13
2017-07-20T16:06:28.642Z,9.10
2017-07-20T16:08:56.256Z,6.17
2017-07-20T16:11:23.915Z,5.60
2017-07-20T16:13:51.637Z,7.10
2017-07-20T16:16:19.303Z,5.37
2017-07-20T16:18:46.904Z,9.00
2017-07-20T16:21:14.558Z,6.63
2017-07-20T16:23:42.181Z,6.83
2017-07-20T16:26:10.554Z,6.70
2017-07-20T16:28:39.079Z,6.43
2017-07-20T16:31:06.701Z,7.07
2017-07-20T16:33:34.313Z,7.00
2017-07-20T16:36:02.726Z,6.17
2017-07-20T16:38:30.343Z,7.30
2017-07-20T16:40:58.034Z,9.63
2017-07-20T16:43:25.698Z,9.20
2017-07-20T16:45:53.321Z,11.13
2017-07-20T16:48:20.924Z,8.33
2017-07-20T16:50:48.644Z,8.40
2017-07-20T16:53:17.038Z,9.27
2017-07-20T16:55:44.672Z,7.13
2017-07-20T16:58:12.309Z,6.83
2017-07-20T17:00:40.689Z,7.50
2017-07-20T17:03:08.312Z,6.80
2017-07-20T17:05:36.713Z,8.83
2017-07-20T17:08:04.322Z,11.67
2017-07-20T17:10:32.708Z,8.33
2017-07-20T17:13:00.347Z,13.03
2017-07-20T17:15:27.958Z,10.13
2017-07-20T17:17:55.571Z,7.03
2017-07-20T17:20:23.251Z,7.27
2017-07-20T17:22:50.869Z,7.33
2017-07-20T17:25:18.485Z,10.33
2017-07-20T17:27:46.159Z,5.57
2017-07-20T17:30:13.767Z,5.97
2017-07-20T17:32:41.474Z,5.20
2017-07-20T17:35:09.146Z,6.00
2017-07-20T17:37:37.542Z,5.20
2017-07-20T17:40:05.155Z,6.60
2017-07-20T17:42:33.578Z,6.27
2017-07-20T17:45:01.207Z,5.73
2017-07-20T17:47:28.807Z,9.70
2017-07-20T17:49:56.453Z,6.23
2017-07-20T17:52:24.077Z,6.20
2017-07-20T17:54:51.690Z,8.50
2017-07-20T17:57:19.326Z,6.77
2017-07-20T17:59:46.933Z,10.17
2017-07-20T18:02:14.558Z,12.03
2017-07-20T18:04:42.209Z,12.47
2017-07-20T18:07:09.824Z,11.93
2017-07-20T18:09:37.445Z,7.53
2017-07-20T18:12:05.175Z,10.17
2017-07-20T18:14:32.799Z,9.17
2017-07-20T18:17:00.416Z,7.90
2017-07-20T18:19:28.070Z,8.87
2017-07-20T18:21:55.667Z,8.30
2017-07-20T18:24:24.045Z,8.67
2017-07-20T18:26:51.685Z,9.60
2017-07-20T18:29:20.064Z,9.17
2017-07-20T18:31:47.681Z,9.80
2017-07-20T18:34:16.083Z,8.70
2017-07-20T18:36:43.695Z,9.73
2017-07-20T18:39:11.304Z,9.13
2017-07-20T18:41:38.948Z,8.30
2017-07-20T18:44:06.568Z,12.10
2017-07-20T18:46:34.178Z,8.60
2017-07-20T18:49:02.615Z,9.07
2017-07-20T18:51:30.234Z,10.00
2017-07-20T18:53:57.843Z,8.83
2017-07-20T18:56:26.253Z,10.20
2017-07-20T18:58:53.860Z,9.20
2017-07-20T19:01:21.465Z,8.40
2017-07-20T19:03:49.364Z,7.90
2017-07-20T19:06:16.972Z,9.27
2017-07-20T19:08:44.574Z,10.07
2017-07-20T19:11:12.207Z,9.63
2017-07-20T19:13:39.829Z,8.10
2017-07-20T19:16:07.441Z,9.87
2017-07-20T19:18:35.075Z,10.50
2017-07-20T19:21:02.680Z,8.43
2017-07-20T19:23:30.284Z,10.33
2017-07-20T19:25:57.928Z,8.67
2017-07-20T19:28:25.540Z,8.53
2017-07-20T19:30:53.160Z,8.83
2017-07-20T19:33:20.793Z,8.40
2017-07-20T19:35:49.155Z,8.07
2017-07-20T19:38:16.780Z,8.50
2017-07-20T19:40:44.409Z,7.30
2017-07-20T19:43:12.021Z,9.63
2017-07-20T19:45:39.640Z,7.77
2017-07-20T19:48:08.035Z,7.53
2017-07-20T19:50:35.636Z,8.73
2017-07-20T19:53:03.243Z,7.33
2017-07-20T19:55:30.874Z,7.03
2017-07-20T19:57:58.483Z,7.17
2017-07-20T20:00:26.865Z,7.17
2017-07-20T20:02:54.509Z,7.63
2017-07-20T20:05:22.121Z,7.10
2017-07-20T20:07:50.577Z,6.87
2017-07-20T20:10:19.463Z,8.10
2017-07-20T20:12:47.075Z,7.10
2017-07-20T20:15:14.681Z,6.60
2017-07-20T20:17:43.093Z,10.20
2017-07-20T20:20:10.696Z,8.00
2017-07-20T20:22:39.077Z,6.13
2017-07-20T20:25:06.726Z,6.63
2017-07-20T20:27:34.338Z,7.00
2017-07-20T20:30:02.950Z,6.40
2017-07-20T20:32:30.675Z,9.93
2017-07-20T20:34:58.429Z,6.87
2017-07-20T20:37:26.104Z,5.90
2017-07-20T20:39:53.772Z,7.63
2017-07-20T20:42:21.521Z,6.10
2017-07-20T20:44:49.949Z,6.27
2017-07-20T20:47:17.683Z,7.90
2017-07-20T20:49:45.305Z,7.80
2017-07-20T20:52:13.822Z,7.80
2017-07-20T20:54:41.488Z,7.30
2017-07-20T20:57:09.096Z,13.43
2017-07-20T20:59:36.791Z,7.77
2017-07-20T21:02:04.436Z,6.40
2017-07-20T21:04:32.187Z,9.73
2017-07-20T21:06:59.827Z,6.87
2017-07-20T21:09:27.477Z,6.97
2017-07-20T21:11:55.093Z,6.90
2017-07-20T21:14:22.692Z,7.33
2017-07-20T21:16:51.107Z,5.93
2017-07-20T21:19:18.716Z,6.90
2017-07-20T21:21:47.091Z,5.80
2017-07-20T21:24:14.735Z,7.57
2017-07-20T21:26:42.354Z,6.43
2017-07-20T21:29:09.955Z,6.97
2017-07-20T21:31:37.602Z,7.83
2017-07-20T21:34:05.222Z,7.00
2017-07-20T21:36:32.837Z,7.17
2017-07-20T21:39:00.467Z,5.97
2017-07-20T21:41:28.079Z,7.83
2017-07-20T21:43:55.809Z,7.00
2017-07-20T21:46:23.453Z,6.70
2017-07-20T21:48:52.529Z,8.13
2017-07-20T21:51:20.147Z,7.13
2017-07-20T21:53:47.805Z,6.30
2017-07-20T21:56:16.186Z,7.90
2017-07-20T21:58:43.796Z,6.33
2017-07-20T22:01:11.427Z,6.37
2017-07-20T22:03:39.031Z,5.73
2017-07-20T22:06:06.649Z,7.00
2017-07-20T22:08:35.152Z,5.70
2017-07-20T22:11:02.760Z,7.10
2017-07-20T22:13:30.377Z,6.90
2017-07-20T22:15:58.016Z,6.03
2017-07-20T22:18:25.631Z,6.70
2017-07-20T22:20:53.241Z,5.83
2017-07-20T22:23:20.968Z,5.20
2017-07-20T22:25:48.581Z,6.73
2017-07-20T22:28:16.179Z,6.00
2017-07-20T22:30:43.829Z,7.60
2017-07-20T22:33:12.195Z,8.23
2017-07-20T22:35:39.805Z,6.10
2017-07-20T22:38:07.440Z,5.67
2017-07-20T22:40:35.047Z,6.07
2017-07-20T22:43:03.421Z,6.63
2017-07-20T22:45:31.232Z,6.57
2017-07-20T22:47:58.835Z,6.70
2017-07-20T22:50:26.434Z,6.17
2017-07-20T22:52:54.073Z,5.57
2017-07-20T22:55:21.692Z,6.10
2017-07-20T22:57:49.296Z,6.63
2017-07-20T23:00:16.957Z,6.33
2017-07-20T23:02:44.563Z,6.47
2017-07-20T23:05:12.173Z,6.13
2017-07-20T23:07:39.818Z,5.70
2017-07-20T23:10:07.423Z,6.53
2017-07-20T23:12:35.813Z,7.23
2017-07-20T23:15:03.461Z,6.57
2017-07-20T23:17:31.071Z,6.00
2017-07-20T23:19:59.434Z,5.90
2017-07-20T23:22:27.842Z,7.40
2017-07-20T23:24:55.448Z,5.83
2017-07-20T23:27:23.821Z,6.20
2017-07-20T23:29:51.454Z,5.50
2017-07-20T23:32:19.857Z,6.50
2017-07-20T23:34:47.475Z,6.37
2017-07-20T23:37:15.117Z,6.30
2017-07-20T23:39:43.488Z,5.20
2017-07-20T23:42:11.099Z,6.30
2017-07-20T23:44:38.739Z,6.90
2017-07-20T23:47:06.351Z,6.37
2017-07-20T23:49:33.947Z,5.67
2017-07-20T23:52:02.365Z,6.73
2017-07-20T23:54:29.976Z,6.73
2017-07-20T23:56:57.588Z,6.50
2017-07-20T23:59:25.220Z,6.57
